DGT weather

Sibulan Airport
Dumaguete City, Negros Oriental Province, Philippines

Public forecast

Using degrees Celsius for public forecast. Weather courtesy of forecast.io.

METAR (pilot weather report)

Retrieved 2019/01/23 03:00 UTC (40 minutes ago):

RPVD 230300Z 36004KT 9999 FEW015 SCT220 30/25 Q1009 RMK A2980

TAF (pilot weather forecast)

Forecast is more than 12 hours old.

Retrieved 2019/01/04 18:00 UTC (18 days ago):

TAF RPVD 041700Z 0418/0518 04010KT 9999 FEW015 BKN080 TEMPO 0418/0424 32006KT 8000 -SHRA FEW014CB SCT015 OVC080